Aviation Digital Data Service (ADDS)

Output produced by METARs form (0221 UTC 22 April 2019)
found at http://www.aviationweather.gov/metar/data/
 
METAR text: EKSP 220150Z 09005KT CAVOK 06/02 Q1019 RMK SKC
Conditions at: EKSP (SKRYDSTRUP(DAN-A, DK) observed 0150 UTC 22 April 2019
Temperature: 6.0°C (43°F)
Dewpoint: 2.0°C (36°F) [RH = 75%]
Pressure (altimeter): 30.09 inches Hg (1019.0 mb)
Winds: from the E (90 degrees) at 6 MPH (5 knots; 2.6 m/s)
Visibility: 6 or more miles (10+ km)
Ceiling: ceiling and visibility are OK
Clouds: unknown
Weather: no significant weather observed at this time

METAR text: EKSP 220120Z 09005KT CAVOK 05/02 Q1019 RMK SKC
Conditions at: EKSP (SKRYDSTRUP(DAN-A, DK) observed 0120 UTC 22 April 2019
Temperature: 5.0°C (41°F)
Dewpoint: 2.0°C (36°F) [RH = 81%]
Pressure (altimeter): 30.09 inches Hg (1019.0 mb)
Winds: from the E (90 degrees) at 6 MPH (5 knots; 2.6 m/s)
Visibility: 6 or more miles (10+ km)
Ceiling: ceiling and visibility are OK
Clouds: unknown
Weather: no significant weather observed at this time

METAR text: EKSP 220050Z 10004KT CAVOK 06/02 Q1019 RMK SKC
Conditions at: EKSP (SKRYDSTRUP(DAN-A, DK) observed 0050 UTC 22 April 2019
Temperature: 6.0°C (43°F)
Dewpoint: 2.0°C (36°F) [RH = 75%]
Pressure (altimeter): 30.09 inches Hg (1019.0 mb)
Winds: from the E (100 degrees) at 5 MPH (4 knots; 2.1 m/s)
Visibility: 6 or more miles (10+ km)
Ceiling: ceiling and visibility are OK
Clouds: unknown
Weather: no significant weather observed at this time

METAR text: EKSP 220020Z 11005KT CAVOK 06/02 Q1020 RMK SKC
Conditions at: EKSP (SKRYDSTRUP(DAN-A, DK) observed 0020 UTC 22 April 2019
Temperature: 6.0°C (43°F)
Dewpoint: 2.0°C (36°F) [RH = 75%]
Pressure (altimeter): 30.12 inches Hg (1020.0 mb)
Winds: from the ESE (110 degrees) at 6 MPH (5 knots; 2.6 m/s)
Visibility: 6 or more miles (10+ km)
Ceiling: ceiling and visibility are OK
Clouds: unknown
Weather: no significant weather observed at this time

METAR text: EKSP 212350Z 10003KT CAVOK 06/02 Q1020 RMK SKC
Conditions at: EKSP (SKRYDSTRUP(DAN-A, DK) observed 2350 UTC 21 April 2019
Temperature: 6.0°C (43°F)
Dewpoint: 2.0°C (36°F) [RH = 75%]
Pressure (altimeter): 30.12 inches Hg (1020.0 mb)
Winds: from the E (100 degrees) at 3 MPH (3 knots; 1.5 m/s)
Visibility: 6 or more miles (10+ km)
Ceiling: ceiling and visibility are OK
Clouds: unknown
Weather: no significant weather observed at this time

METAR text: EKSP 212320Z 10003KT CAVOK 04/M00 Q1020 RMK SKC
Conditions at: EKSP (SKRYDSTRUP(DAN-A, DK) observed 2320 UTC 21 April 2019
Temperature: 4.0°C (39°F)
Dewpoint: 0.0°C (32°F) [RH = 75%]
Pressure (altimeter): 30.12 inches Hg (1020.0 mb)
Winds: from the E (100 degrees) at 3 MPH (3 knots; 1.5 m/s)
Visibility: 6 or more miles (10+ km)
Ceiling: ceiling and visibility are OK
Clouds: unknown
Weather: no significant weather observed at this time

METAR text: EKSP 212250Z 07004KT CAVOK 06/01 Q1020 RMK SKC
Conditions at: EKSP (SKRYDSTRUP(DAN-A, DK) observed 2250 UTC 21 April 2019
Temperature: 6.0°C (43°F)
Dewpoint: 1.0°C (34°F) [RH = 70%]
Pressure (altimeter): 30.12 inches Hg (1020.0 mb)
Winds: from the ENE (70 degrees) at 5 MPH (4 knots; 2.1 m/s)
Visibility: 6 or more miles (10+ km)
Ceiling: ceiling and visibility are OK
Clouds: unknown
Weather: no significant weather observed at this time

METAR text: EKSP 212220Z 07002KT CAVOK 07/01 Q1020 RMK SKC
Conditions at: EKSP (SKRYDSTRUP(DAN-A, DK) observed 2220 UTC 21 April 2019
Temperature: 7.0°C (45°F)
Dewpoint: 1.0°C (34°F) [RH = 66%]
Pressure (altimeter): 30.12 inches Hg (1020.0 mb)
Winds: from the ENE (70 degrees) at 2 MPH (2 knots; 1.0 m/s)
Visibility: 6 or more miles (10+ km)
Ceiling: ceiling and visibility are OK
Clouds: unknown
Weather: no significant weather observed at this time

METAR text: EKSP 212150Z 06002KT CAVOK 06/02 Q1020 RMK SKC
Conditions at: EKSP (SKRYDSTRUP(DAN-A, DK) observed 2150 UTC 21 April 2019
Temperature: 6.0°C (43°F)
Dewpoint: 2.0°C (36°F) [RH = 75%]
Pressure (altimeter): 30.12 inches Hg (1020.0 mb)
Winds: from the ENE (60 degrees) at 2 MPH (2 knots; 1.0 m/s)
Visibility: 6 or more miles (10+ km)
Ceiling: ceiling and visibility are OK
Clouds: unknown
Weather: no significant weather observed at this time

METAR text: EKSP 212120Z 11003KT CAVOK 06/01 Q1020 RMK SKC
Conditions at: EKSP (SKRYDSTRUP(DAN-A, DK) observed 2120 UTC 21 April 2019
Temperature: 6.0°C (43°F)
Dewpoint: 1.0°C (34°F) [RH = 70%]
Pressure (altimeter): 30.12 inches Hg (1020.0 mb)
Winds: from the ESE (110 degrees) at 3 MPH (3 knots; 1.5 m/s)
Visibility: 6 or more miles (10+ km)
Ceiling: ceiling and visibility are OK
Clouds: unknown
Weather: no significant weather observed at this time

METAR text: EKSP 212050Z 07004KT CAVOK 06/M00 Q1020 RMK SKC
Conditions at: EKSP (SKRYDSTRUP(DAN-A, DK) observed 2050 UTC 21 April 2019
Temperature: 6.0°C (43°F)
Dewpoint: 0.0°C (32°F) [RH = 65%]
Pressure (altimeter): 30.12 inches Hg (1020.0 mb)
Winds: from the ENE (70 degrees) at 5 MPH (4 knots; 2.1 m/s)
Visibility: 6 or more miles (10+ km)
Ceiling: ceiling and visibility are OK
Clouds: unknown
Weather: no significant weather observed at this time

METAR text: EKSP 212020Z 08003KT CAVOK 09/01 Q1021 RMK SKC
Conditions at: EKSP (SKRYDSTRUP(DAN-A, DK) observed 2020 UTC 21 April 2019
Temperature: 9.0°C (48°F)
Dewpoint: 1.0°C (34°F) [RH = 57%]
Pressure (altimeter): 30.15 inches Hg (1021.0 mb)
Winds: from the E (80 degrees) at 3 MPH (3 knots; 1.5 m/s)
Visibility: 6 or more miles (10+ km)
Ceiling: ceiling and visibility are OK
Clouds: unknown
Weather: no significant weather observed at this time

METAR text: EKSP 211950Z 08004KT CAVOK 08/01 Q1021 RMK SKC
Conditions at: EKSP (SKRYDSTRUP(DAN-A, DK) observed 1950 UTC 21 April 2019
Temperature: 8.0°C (46°F)
Dewpoint: 1.0°C (34°F) [RH = 61%]
Pressure (altimeter): 30.15 inches Hg (1021.0 mb)
Winds: from the E (80 degrees) at 5 MPH (4 knots; 2.1 m/s)
Visibility: 6 or more miles (10+ km)
Ceiling: ceiling and visibility are OK
Clouds: unknown
Weather: no significant weather observed at this time

METAR text: EKSP 211920Z 08004KT CAVOK 10/01 Q1021 RMK SKC
Conditions at: EKSP (SKRYDSTRUP(DAN-A, DK) observed 1920 UTC 21 April 2019
Temperature: 10.0°C (50°F)
Dewpoint: 1.0°C (34°F) [RH = 53%]
Pressure (altimeter): 30.15 inches Hg (1021.0 mb)
Winds: from the E (80 degrees) at 5 MPH (4 knots; 2.1 m/s)
Visibility: 6 or more miles (10+ km)
Ceiling: ceiling and visibility are OK
Clouds: unknown
Weather: no significant weather observed at this time

METAR text: EKSP 211850Z 08003KT CAVOK 11/02 Q1021 RMK SKC
Conditions at: EKSP (SKRYDSTRUP(DAN-A, DK) observed 1850 UTC 21 April 2019
Temperature: 11.0°C (52°F)
Dewpoint: 2.0°C (36°F) [RH = 54%]
Pressure (altimeter): 30.15 inches Hg (1021.0 mb)
Winds: from the E (80 degrees) at 3 MPH (3 knots; 1.5 m/s)
Visibility: 6 or more miles (10+ km)
Ceiling: ceiling and visibility are OK
Clouds: unknown
Weather: no significant weather observed at this time

METAR text: EKSP 211820Z 10002KT CAVOK 11/02 Q1021 RMK SKC
Conditions at: EKSP (SKRYDSTRUP(DAN-A, DK) observed 1820 UTC 21 April 2019
Temperature: 11.0°C (52°F)
Dewpoint: 2.0°C (36°F) [RH = 54%]
Pressure (altimeter): 30.15 inches Hg (1021.0 mb)
Winds: from the E (100 degrees) at 2 MPH (2 knots; 1.0 m/s)
Visibility: 6 or more miles (10+ km)
Ceiling: ceiling and visibility are OK
Clouds: unknown
Weather: no significant weather observed at this time

METAR text: EKSP 211750Z 11003KT CAVOK 12/03 Q1021 RMK SKC
Conditions at: EKSP (SKRYDSTRUP(DAN-A, DK) observed 1750 UTC 21 April 2019
Temperature: 12.0°C (54°F)
Dewpoint: 3.0°C (37°F) [RH = 54%]
Pressure (altimeter): 30.15 inches Hg (1021.0 mb)
Winds: from the ESE (110 degrees) at 3 MPH (3 knots; 1.5 m/s)
Visibility: 6 or more miles (10+ km)
Ceiling: ceiling and visibility are OK
Clouds: unknown
Weather: no significant weather observed at this time

METAR text: EKSP 211720Z 10005KT CAVOK 15/02 Q1021 RMK SKC
Conditions at: EKSP (SKRYDSTRUP(DAN-A, DK) observed 1720 UTC 21 April 2019
Temperature: 15.0°C (59°F)
Dewpoint: 2.0°C (36°F) [RH = 41%]
Pressure (altimeter): 30.15 inches Hg (1021.0 mb)
Winds: from the E (100 degrees) at 6 MPH (5 knots; 2.6 m/s)
Visibility: 6 or more miles (10+ km)
Ceiling: ceiling and visibility are OK
Clouds: unknown
Weather: no significant weather observed at this time

METAR text: EKSP 211650Z 10007KT CAVOK 16/01 Q1021 RMK SKC
Conditions at: EKSP (SKRYDSTRUP(DAN-A, DK) observed 1650 UTC 21 April 2019
Temperature: 16.0°C (61°F)
Dewpoint: 1.0°C (34°F) [RH = 36%]
Pressure (altimeter): 30.15 inches Hg (1021.0 mb)
Winds: from the E (100 degrees) at 8 MPH (7 knots; 3.6 m/s)
Visibility: 6 or more miles (10+ km)
Ceiling: ceiling and visibility are OK
Clouds: unknown
Weather: no significant weather observed at this time

METAR text: EKSP 211620Z 11007KT CAVOK 17/02 Q1021 RMK SKC
Conditions at: EKSP (SKRYDSTRUP(DAN-A, DK) observed 1620 UTC 21 April 2019
Temperature: 17.0°C (63°F)
Dewpoint: 2.0°C (36°F) [RH = 36%]
Pressure (altimeter): 30.15 inches Hg (1021.0 mb)
Winds: from the ESE (110 degrees) at 8 MPH (7 knots; 3.6 m/s)
Visibility: 6 or more miles (10+ km)
Ceiling: ceiling and visibility are OK
Clouds: unknown
Weather: no significant weather observed at this time

METAR text: EKSP 211550Z 11007KT CAVOK 17/02 Q1021 RMK SKC
Conditions at: EKSP (SKRYDSTRUP(DAN-A, DK) observed 1550 UTC 21 April 2019
Temperature: 17.0°C (63°F)
Dewpoint: 2.0°C (36°F) [RH = 36%]
Pressure (altimeter): 30.15 inches Hg (1021.0 mb)
Winds: from the ESE (110 degrees) at 8 MPH (7 knots; 3.6 m/s)
Visibility: 6 or more miles (10+ km)
Ceiling: ceiling and visibility are OK
Clouds: unknown
Weather: no significant weather observed at this time

METAR text: EKSP 211520Z 12007KT CAVOK 17/03 Q1022 RMK SKC
Conditions at: EKSP (SKRYDSTRUP(DAN-A, DK) observed 1520 UTC 21 April 2019
Temperature: 17.0°C (63°F)
Dewpoint: 3.0°C (37°F) [RH = 39%]
Pressure (altimeter): 30.18 inches Hg (1022.0 mb)
Winds: from the ESE (120 degrees) at 8 MPH (7 knots; 3.6 m/s)
Visibility: 6 or more miles (10+ km)
Ceiling: ceiling and visibility are OK
Clouds: unknown
Weather: no significant weather observed at this time

METAR text: EKSP 211450Z 11007KT CAVOK 18/02 Q1022 RMK SKC
Conditions at: EKSP (SKRYDSTRUP(DAN-A, DK) observed 1450 UTC 21 April 2019
Temperature: 18.0°C (64°F)
Dewpoint: 2.0°C (36°F) [RH = 34%]
Pressure (altimeter): 30.18 inches Hg (1022.0 mb)
Winds: from the ESE (110 degrees) at 8 MPH (7 knots; 3.6 m/s)
Visibility: 6 or more miles (10+ km)
Ceiling: ceiling and visibility are OK
Clouds: unknown
Weather: no significant weather observed at this time

METAR text: EKSP 211420Z 11006KT CAVOK 18/02 Q1022 RMK SKC
Conditions at: EKSP (SKRYDSTRUP(DAN-A, DK) observed 1420 UTC 21 April 2019
Temperature: 18.0°C (64°F)
Dewpoint: 2.0°C (36°F) [RH = 34%]
Pressure (altimeter): 30.18 inches Hg (1022.0 mb)
Winds: from the ESE (110 degrees) at 7 MPH (6 knots; 3.1 m/s)
Visibility: 6 or more miles (10+ km)
Ceiling: ceiling and visibility are OK
Clouds: unknown
Weather: no significant weather observed at this time

METAR text: EKSP 211350Z 10006KT 060V160 CAVOK 18/03 Q1022 RMK FEW200
Conditions at: EKSP (SKRYDSTRUP(DAN-A, DK) observed 1350 UTC 21 April 2019
Temperature: 18.0°C (64°F)
Dewpoint: 3.0°C (37°F) [RH = 37%]
Pressure (altimeter): 30.18 inches Hg (1022.0 mb)
Winds: from the E (100 degrees) at 7 MPH (6 knots; 3.1 m/s)
Visibility: 6 or more miles (10+ km)
Ceiling: ceiling and visibility are OK
Clouds: unknown
Weather: no significant weather observed at this time

METAR text: EKSP 211320Z 09007KT 060V130 CAVOK 18/02 Q1023 RMK FEW200
Conditions at: EKSP (SKRYDSTRUP(DAN-A, DK) observed 1320 UTC 21 April 2019
Temperature: 18.0°C (64°F)
Dewpoint: 2.0°C (36°F) [RH = 34%]
Pressure (altimeter): 30.21 inches Hg (1023.0 mb)
Winds: from the E (90 degrees) at 8 MPH (7 knots; 3.6 m/s)
Visibility: 6 or more miles (10+ km)
Ceiling: ceiling and visibility are OK
Clouds: unknown
Weather: no significant weather observed at this time

METAR text: EKSP 211250Z 11007KT 070V140 CAVOK 18/04 Q1023 RMK FEW200
Conditions at: EKSP (SKRYDSTRUP(DAN-A, DK) observed 1250 UTC 21 April 2019
Temperature: 18.0°C (64°F)
Dewpoint: 4.0°C (39°F) [RH = 39%]
Pressure (altimeter): 30.21 inches Hg (1023.0 mb)
Winds: from the ESE (110 degrees) at 8 MPH (7 knots; 3.6 m/s)
Visibility: 6 or more miles (10+ km)
Ceiling: ceiling and visibility are OK
Clouds: unknown
Weather: no significant weather observed at this time

METAR text: EKSP 211220Z 11009KT 090V150 CAVOK 18/04 Q1024 RMK FEW200
Conditions at: EKSP (SKRYDSTRUP(DAN-A, DK) observed 1220 UTC 21 April 2019
Temperature: 18.0°C (64°F)
Dewpoint: 4.0°C (39°F) [RH = 39%]
Pressure (altimeter): 30.24 inches Hg (1024.0 mb)
Winds: from the ESE (110 degrees) at 10 MPH (9 knots; 4.6 m/s)
Visibility: 6 or more miles (10+ km)
Ceiling: ceiling and visibility are OK
Clouds: unknown
Weather: no significant weather observed at this time

METAR text: EKSP 211150Z 12003KT CAVOK 18/02 Q1024 RMK FEW200
Conditions at: EKSP (SKRYDSTRUP(DAN-A, DK) observed 1150 UTC 21 April 2019
Temperature: 18.0°C (64°F)
Dewpoint: 2.0°C (36°F) [RH = 34%]
Pressure (altimeter): 30.24 inches Hg (1024.0 mb)
Winds: from the ESE (120 degrees) at 3 MPH (3 knots; 1.5 m/s)
Visibility: 6 or more miles (10+ km)
Ceiling: ceiling and visibility are OK
Clouds: unknown
Weather: no significant weather observed at this time

METAR text: EKSP 211120Z 13006KT 080V190 CAVOK 17/01 Q1024 RMK FEW200
Conditions at: EKSP (SKRYDSTRUP(DAN-A, DK) observed 1120 UTC 21 April 2019
Temperature: 17.0°C (63°F)
Dewpoint: 1.0°C (34°F) [RH = 34%]
Pressure (altimeter): 30.24 inches Hg (1024.0 mb)
Winds: from the SE (130 degrees) at 7 MPH (6 knots; 3.1 m/s)
Visibility: 6 or more miles (10+ km)
Ceiling: ceiling and visibility are OK
Clouds: unknown
Weather: no significant weather observed at this time

METAR text: EKSP 211050Z 12005KT 070V160 CAVOK 17/02 Q1024 RMK FEW200
Conditions at: EKSP (SKRYDSTRUP(DAN-A, DK) observed 1050 UTC 21 April 2019
Temperature: 17.0°C (63°F)
Dewpoint: 2.0°C (36°F) [RH = 36%]
Pressure (altimeter): 30.24 inches Hg (1024.0 mb)
Winds: from the ESE (120 degrees) at 6 MPH (5 knots; 2.6 m/s)
Visibility: 6 or more miles (10+ km)
Ceiling: ceiling and visibility are OK
Clouds: unknown
Weather: no significant weather observed at this time

METAR text: EKSP 211020Z 16004KT 090V210 CAVOK 17/01 Q1025 RMK FEW200
Conditions at: EKSP (SKRYDSTRUP(DAN-A, DK) observed 1020 UTC 21 April 2019
Temperature: 17.0°C (63°F)
Dewpoint: 1.0°C (34°F) [RH = 34%]
Pressure (altimeter): 30.27 inches Hg (1025.0 mb)
Winds: from the SSE (160 degrees) at 5 MPH (4 knots; 2.1 m/s)
Visibility: 6 or more miles (10+ km)
Ceiling: ceiling and visibility are OK
Clouds: unknown
Weather: no significant weather observed at this time

METAR text: EKSP 210950Z 11005KT 340V140 CAVOK 17/00 Q1025 RMK FEW200
Conditions at: EKSP (SKRYDSTRUP(DAN-A, DK) observed 0950 UTC 21 April 2019
Temperature: 17.0°C (63°F)
Dewpoint: 0.0°C (32°F) [RH = 32%]
Pressure (altimeter): 30.27 inches Hg (1025.0 mb)
Winds: from the ESE (110 degrees) at 6 MPH (5 knots; 2.6 m/s)
Visibility: 6 or more miles (10+ km)
Ceiling: ceiling and visibility are OK
Clouds: unknown
Weather: no significant weather observed at this time

METAR text: EKSP 210920Z 15004KT 110V210 CAVOK 16/01 Q1025 RMK FEW200
Conditions at: EKSP (SKRYDSTRUP(DAN-A, DK) observed 0920 UTC 21 April 2019
Temperature: 16.0°C (61°F)
Dewpoint: 1.0°C (34°F) [RH = 36%]
Pressure (altimeter): 30.27 inches Hg (1025.0 mb)
Winds: from the SSE (150 degrees) at 5 MPH (4 knots; 2.1 m/s)
Visibility: 6 or more miles (10+ km)
Ceiling: ceiling and visibility are OK
Clouds: unknown
Weather: no significant weather observed at this time

METAR text: EKSP 210850Z 16004KT 120V200 CAVOK 16/03 Q1026 RMK FEW200
Conditions at: EKSP (SKRYDSTRUP(DAN-A, DK) observed 0850 UTC 21 April 2019
Temperature: 16.0°C (61°F)
Dewpoint: 3.0°C (37°F) [RH = 42%]
Pressure (altimeter): 30.30 inches Hg (1026.0 mb)
Winds: from the SSE (160 degrees) at 5 MPH (4 knots; 2.1 m/s)
Visibility: 6 or more miles (10+ km)
Ceiling: ceiling and visibility are OK
Clouds: unknown
Weather: no significant weather observed at this time

METAR text: EKSP 210820Z VRB03KT CAVOK 15/01 Q1026 RMK FEW200
Conditions at: EKSP (SKRYDSTRUP(DAN-A, DK) observed 0820 UTC 21 April 2019
Temperature: 15.0°C (59°F)
Dewpoint: 1.0°C (34°F) [RH = 39%]
Pressure (altimeter): 30.30 inches Hg (1026.0 mb)
Winds: variable direction winds at 3 MPH (3 knots; 1.5 m/s)
Visibility: 6 or more miles (10+ km)
Ceiling: ceiling and visibility are OK
Clouds: unknown
Weather: no significant weather observed at this time

METAR text: EKSP 210750Z 17004KT 130V200 CAVOK 14/01 Q1026 RMK FEW200
Conditions at: EKSP (SKRYDSTRUP(DAN-A, DK) observed 0750 UTC 21 April 2019
Temperature: 14.0°C (57°F)
Dewpoint: 1.0°C (34°F) [RH = 41%]
Pressure (altimeter): 30.30 inches Hg (1026.0 mb)
Winds: from the S (170 degrees) at 5 MPH (4 knots; 2.1 m/s)
Visibility: 6 or more miles (10+ km)
Ceiling: ceiling and visibility are OK
Clouds: unknown
Weather: no significant weather observed at this time

METAR text: EKSP 210720Z 15004KT 120V190 CAVOK 13/00 Q1026 RMK FEW200
Conditions at: EKSP (SKRYDSTRUP(DAN-A, DK) observed 0720 UTC 21 April 2019
Temperature: 13.0°C (55°F)
Dewpoint: 0.0°C (32°F) [RH = 41%]
Pressure (altimeter): 30.30 inches Hg (1026.0 mb)
Winds: from the SSE (150 degrees) at 5 MPH (4 knots; 2.1 m/s)
Visibility: 6 or more miles (10+ km)
Ceiling: ceiling and visibility are OK
Clouds: unknown
Weather: no significant weather observed at this time

METAR text: EKSP 210650Z 14002KT CAVOK 12/02 Q1026 RMK FEW200
Conditions at: EKSP (SKRYDSTRUP(DAN-A, DK) observed 0650 UTC 21 April 2019
Temperature: 12.0°C (54°F)
Dewpoint: 2.0°C (36°F) [RH = 50%]
Pressure (altimeter): 30.30 inches Hg (1026.0 mb)
Winds: from the SE (140 degrees) at 2 MPH (2 knots; 1.0 m/s)
Visibility: 6 or more miles (10+ km)
Ceiling: ceiling and visibility are OK
Clouds: unknown
Weather: no significant weather observed at this time

METAR text: EKSP 210620Z 00000KT CAVOK 08/03 Q1026 RMK FEW200
Conditions at: EKSP (SKRYDSTRUP(DAN-A, DK) observed 0620 UTC 21 April 2019
Temperature: 8.0°C (46°F)
Dewpoint: 3.0°C (37°F) [RH = 71%]
Pressure (altimeter): 30.30 inches Hg (1026.0 mb)
Winds: calm
Visibility: 6 or more miles (10+ km)
Ceiling: ceiling and visibility are OK
Clouds: unknown
Weather: no significant weather observed at this time

METAR text: EKSP 210550Z 08001KT CAVOK 04/01 Q1027 RMK FEW230
Conditions at: EKSP (SKRYDSTRUP(DAN-A, DK) observed 0550 UTC 21 April 2019
Temperature: 4.0°C (39°F)
Dewpoint: 1.0°C (34°F) [RH = 81%]
Pressure (altimeter): 30.32 inches Hg (1027.0 mb)
Winds: from the E (80 degrees) at 1 MPH (1 knots; 0.5 m/s)
Visibility: 6 or more miles (10+ km)
Ceiling: ceiling and visibility are OK
Clouds: unknown
Weather: no significant weather observed at this time

METAR text: EKSP 210520Z 08001KT CAVOK 02/M02 Q1027 RMK FEW230
Conditions at: EKSP (SKRYDSTRUP(DAN-A, DK) observed 0520 UTC 21 April 2019
Temperature: 2.0°C (36°F)
Dewpoint: -2.0°C (28°F) [RH = 75%]
Pressure (altimeter): 30.32 inches Hg (1027.0 mb)
Winds: from the E (80 degrees) at 1 MPH (1 knots; 0.5 m/s)
Visibility: 6 or more miles (10+ km)
Ceiling: ceiling and visibility are OK
Clouds: unknown
Weather: no significant weather observed at this time

METAR text: EKSP 210450Z 07001KT 9999 MIFG NSC 01/M01 Q1027 RMK FEW230
Conditions at: EKSP (SKRYDSTRUP(DAN-A, DK) observed 0450 UTC 21 April 2019
Temperature: 1.0°C (34°F)
Dewpoint: -1.0°C (30°F) [RH = 86%]
Pressure (altimeter): 30.32 inches Hg (1027.0 mb)
Winds: from the ENE (70 degrees) at 1 MPH (1 knots; 0.5 m/s)
Visibility: 6 or more miles (10+ km)
Ceiling: at least 12,000 feet AGL
Clouds: sky clear below 12,000 feet AGL
Weather: MIFG  (shallow fog)

METAR text: EKSP 210420Z 16001KT 9999 MIFG NSC 01/M01 Q1027 RMK FEW230
Conditions at: EKSP (SKRYDSTRUP(DAN-A, DK) observed 0420 UTC 21 April 2019
Temperature: 1.0°C (34°F)
Dewpoint: -1.0°C (30°F) [RH = 86%]
Pressure (altimeter): 30.32 inches Hg (1027.0 mb)
Winds: from the SSE (160 degrees) at 1 MPH (1 knots; 0.5 m/s)
Visibility: 6 or more miles (10+ km)
Ceiling: at least 12,000 feet AGL
Clouds: sky clear below 12,000 feet AGL
Weather: MIFG  (shallow fog)

METAR text: EKSP 210350Z 00000KT 9999 MIFG NSC 01/M01 Q1027 RMK FEW230
Conditions at: EKSP (SKRYDSTRUP(DAN-A, DK) observed 0350 UTC 21 April 2019
Temperature: 1.0°C (34°F)
Dewpoint: -1.0°C (30°F) [RH = 86%]
Pressure (altimeter): 30.32 inches Hg (1027.0 mb)
Winds: calm
Visibility: 6 or more miles (10+ km)
Ceiling: at least 12,000 feet AGL
Clouds: sky clear below 12,000 feet AGL
Weather: MIFG  (shallow fog)

METAR text: EKSP 210320Z 16001KT CAVOK 01/M01 Q1027 RMK FEW230
Conditions at: EKSP (SKRYDSTRUP(DAN-A, DK) observed 0320 UTC 21 April 2019
Temperature: 1.0°C (34°F)
Dewpoint: -1.0°C (30°F) [RH = 86%]
Pressure (altimeter): 30.32 inches Hg (1027.0 mb)
Winds: from the SSE (160 degrees) at 1 MPH (1 knots; 0.5 m/s)
Visibility: 6 or more miles (10+ km)
Ceiling: ceiling and visibility are OK
Clouds: unknown
Weather: no significant weather observed at this time

METAR text: EKSP 210250Z 11001KT CAVOK M00/M03 Q1028 RMK FEW230
Conditions at: EKSP (SKRYDSTRUP(DAN-A, DK) observed 0250 UTC 21 April 2019
Temperature: 0.0°C (32°F)
Dewpoint: -3.0°C (27°F) [RH = 80%]
Pressure (altimeter): 30.35 inches Hg (1028.0 mb)
Winds: from the ESE (110 degrees) at 1 MPH (1 knots; 0.5 m/s)
Visibility: 6 or more miles (10+ km)
Ceiling: ceiling and visibility are OK
Clouds: unknown
Weather: no significant weather observed at this time

METAR text: EKSP 210220Z 07002KT CAVOK 01/M01 Q1028 RMK FEW230
Conditions at: EKSP (SKRYDSTRUP(DAN-A, DK) observed 0220 UTC 21 April 2019
Temperature: 1.0°C (34°F)
Dewpoint: -1.0°C (30°F) [RH = 86%]
Pressure (altimeter): 30.35 inches Hg (1028.0 mb)
Winds: from the ENE (70 degrees) at 2 MPH (2 knots; 1.0 m/s)
Visibility: 6 or more miles (10+ km)
Ceiling: ceiling and visibility are OK
Clouds: unknown
Weather: no significant weather observed at this time

METAR text: EKSP 210150Z 08001KT CAVOK 01/M02 Q1028 RMK SKC
Conditions at: EKSP (SKRYDSTRUP(DAN-A, DK) observed 0150 UTC 21 April 2019
Temperature: 1.0°C (34°F)
Dewpoint: -2.0°C (28°F) [RH = 80%]
Pressure (altimeter): 30.35 inches Hg (1028.0 mb)
Winds: from the E (80 degrees) at 1 MPH (1 knots; 0.5 m/s)
Visibility: 6 or more miles (10+ km)
Ceiling: ceiling and visibility are OK
Clouds: unknown
Weather: no significant weather observed at this time

METAR text: EKSP 210120Z 06002KT CAVOK 01/M01 Q1028 RMK SKC
Conditions at: EKSP (SKRYDSTRUP(DAN-A, DK) observed 0120 UTC 21 April 2019
Temperature: 1.0°C (34°F)
Dewpoint: -1.0°C (30°F) [RH = 86%]
Pressure (altimeter): 30.35 inches Hg (1028.0 mb)
Winds: from the ENE (60 degrees) at 2 MPH (2 knots; 1.0 m/s)
Visibility: 6 or more miles (10+ km)
Ceiling: ceiling and visibility are OK
Clouds: unknown
Weather: no significant weather observed at this time

METAR text: EKSP 210050Z 09001KT CAVOK 01/M03 Q1029 RMK FEW200
Conditions at: EKSP (SKRYDSTRUP(DAN-A, DK) observed 0050 UTC 21 April 2019
Temperature: 1.0°C (34°F)
Dewpoint: -3.0°C (27°F) [RH = 75%]
Pressure (altimeter): 30.38 inches Hg (1029.0 mb)
Winds: from the E (90 degrees) at 1 MPH (1 knots; 0.5 m/s)
Visibility: 6 or more miles (10+ km)
Ceiling: ceiling and visibility are OK
Clouds: unknown
Weather: no significant weather observed at this time

METAR text: EKSP 210020Z 00000KT CAVOK 03/M01 Q1029 RMK FEW200
Conditions at: EKSP (SKRYDSTRUP(DAN-A, DK) observed 0020 UTC 21 April 2019
Temperature: 3.0°C (37°F)
Dewpoint: -1.0°C (30°F) [RH = 75%]
Pressure (altimeter): 30.38 inches Hg (1029.0 mb)
Winds: calm
Visibility: 6 or more miles (10+ km)
Ceiling: ceiling and visibility are OK
Clouds: unknown
Weather: no significant weather observed at this time

METAR text: EKSP 202350Z 09001KT CAVOK 03/M00 Q1029 RMK FEW200
Conditions at: EKSP (SKRYDSTRUP(DAN-A, DK) observed 2350 UTC 20 April 2019
Temperature: 3.0°C (37°F)
Dewpoint: 0.0°C (32°F) [RH = 81%]
Pressure (altimeter): 30.38 inches Hg (1029.0 mb)
Winds: from the E (90 degrees) at 1 MPH (1 knots; 0.5 m/s)
Visibility: 6 or more miles (10+ km)
Ceiling: ceiling and visibility are OK
Clouds: unknown
Weather: no significant weather observed at this time

METAR text: EKSP 202320Z 08001KT CAVOK 04/00 Q1029 RMK FEW200
Conditions at: EKSP (SKRYDSTRUP(DAN-A, DK) observed 2320 UTC 20 April 2019
Temperature: 4.0°C (39°F)
Dewpoint: 0.0°C (32°F) [RH = 75%]
Pressure (altimeter): 30.38 inches Hg (1029.0 mb)
Winds: from the E (80 degrees) at 1 MPH (1 knots; 0.5 m/s)
Visibility: 6 or more miles (10+ km)
Ceiling: ceiling and visibility are OK
Clouds: unknown
Weather: no significant weather observed at this time

METAR text: EKSP 202250Z 08001KT CAVOK 04/M00 Q1029 RMK FEW200
Conditions at: EKSP (SKRYDSTRUP(DAN-A, DK) observed 2250 UTC 20 April 2019
Temperature: 4.0°C (39°F)
Dewpoint: 0.0°C (32°F) [RH = 75%]
Pressure (altimeter): 30.38 inches Hg (1029.0 mb)
Winds: from the E (80 degrees) at 1 MPH (1 knots; 0.5 m/s)
Visibility: 6 or more miles (10+ km)
Ceiling: ceiling and visibility are OK
Clouds: unknown
Weather: no significant weather observed at this time

METAR text: EKSP 202220Z 12001KT CAVOK 05/00 Q1030 RMK FEW200
Conditions at: EKSP (SKRYDSTRUP(DAN-A, DK) observed 2220 UTC 20 April 2019
Temperature: 5.0°C (41°F)
Dewpoint: 0.0°C (32°F) [RH = 70%]
Pressure (altimeter): 30.41 inches Hg (1030.0 mb)
Winds: from the ESE (120 degrees) at 1 MPH (1 knots; 0.5 m/s)
Visibility: 6 or more miles (10+ km)
Ceiling: ceiling and visibility are OK
Clouds: unknown
Weather: no significant weather observed at this time

METAR text: EKSP 202150Z 18001KT CAVOK 06/00 Q1030 RMK FEW200
Conditions at: EKSP (SKRYDSTRUP(DAN-A, DK) observed 2150 UTC 20 April 2019
Temperature: 6.0°C (43°F)
Dewpoint: 0.0°C (32°F) [RH = 65%]
Pressure (altimeter): 30.41 inches Hg (1030.0 mb)
Winds: from the S (180 degrees) at 1 MPH (1 knots; 0.5 m/s)
Visibility: 6 or more miles (10+ km)
Ceiling: ceiling and visibility are OK
Clouds: unknown
Weather: no significant weather observed at this time

METAR text: EKSP 202120Z 18001KT CAVOK 07/00 Q1030 RMK FEW200
Conditions at: EKSP (SKRYDSTRUP(DAN-A, DK) observed 2120 UTC 20 April 2019
Temperature: 7.0°C (45°F)
Dewpoint: 0.0°C (32°F) [RH = 61%]
Pressure (altimeter): 30.41 inches Hg (1030.0 mb)
Winds: from the S (180 degrees) at 1 MPH (1 knots; 0.5 m/s)
Visibility: 6 or more miles (10+ km)
Ceiling: ceiling and visibility are OK
Clouds: unknown
Weather: no significant weather observed at this time

METAR text: EKSP 202050Z 16002KT CAVOK 07/00 Q1030 RMK FEW200
Conditions at: EKSP (SKRYDSTRUP(DAN-A, DK) observed 2050 UTC 20 April 2019
Temperature: 7.0°C (45°F)
Dewpoint: 0.0°C (32°F) [RH = 61%]
Pressure (altimeter): 30.41 inches Hg (1030.0 mb)
Winds: from the SSE (160 degrees) at 2 MPH (2 knots; 1.0 m/s)
Visibility: 6 or more miles (10+ km)
Ceiling: ceiling and visibility are OK
Clouds: unknown
Weather: no significant weather observed at this time

METAR text: EKSP 202020Z 21001KT CAVOK 07/01 Q1030 RMK FEW200
Conditions at: EKSP (SKRYDSTRUP(DAN-A, DK) observed 2020 UTC 20 April 2019
Temperature: 7.0°C (45°F)
Dewpoint: 1.0°C (34°F) [RH = 66%]
Pressure (altimeter): 30.41 inches Hg (1030.0 mb)
Winds: from the SSW (210 degrees) at 1 MPH (1 knots; 0.5 m/s)
Visibility: 6 or more miles (10+ km)
Ceiling: ceiling and visibility are OK
Clouds: unknown
Weather: no significant weather observed at this time

METAR text: EKSP 201950Z 22001KT CAVOK 09/01 Q1030 RMK FEW200
Conditions at: EKSP (SKRYDSTRUP(DAN-A, DK) observed 1950 UTC 20 April 2019
Temperature: 9.0°C (48°F)
Dewpoint: 1.0°C (34°F) [RH = 57%]
Pressure (altimeter): 30.41 inches Hg (1030.0 mb)
Winds: from the SW (220 degrees) at 1 MPH (1 knots; 0.5 m/s)
Visibility: 6 or more miles (10+ km)
Ceiling: ceiling and visibility are OK
Clouds: unknown
Weather: no significant weather observed at this time

METAR text: EKSP 201920Z 26003KT CAVOK 11/01 Q1030 RMK FEW200
Conditions at: EKSP (SKRYDSTRUP(DAN-A, DK) observed 1920 UTC 20 April 2019
Temperature: 11.0°C (52°F)
Dewpoint: 1.0°C (34°F) [RH = 50%]
Pressure (altimeter): 30.41 inches Hg (1030.0 mb)
Winds: from the W (260 degrees) at 3 MPH (3 knots; 1.5 m/s)
Visibility: 6 or more miles (10+ km)
Ceiling: ceiling and visibility are OK
Clouds: unknown
Weather: no significant weather observed at this time

METAR text: EKSP 201850Z 16003KT CAVOK 12/01 Q1030 RMK FEW200
Conditions at: EKSP (SKRYDSTRUP(DAN-A, DK) observed 1850 UTC 20 April 2019
Temperature: 12.0°C (54°F)
Dewpoint: 1.0°C (34°F) [RH = 47%]
Pressure (altimeter): 30.41 inches Hg (1030.0 mb)
Winds: from the SSE (160 degrees) at 3 MPH (3 knots; 1.5 m/s)
Visibility: 6 or more miles (10+ km)
Ceiling: ceiling and visibility are OK
Clouds: unknown
Weather: no significant weather observed at this time

METAR text: EKSP 201820Z 17002KT CAVOK 13/01 Q1030 RMK FEW200
Conditions at: EKSP (SKRYDSTRUP(DAN-A, DK) observed 1820 UTC 20 April 2019
Temperature: 13.0°C (55°F)
Dewpoint: 1.0°C (34°F) [RH = 44%]
Pressure (altimeter): 30.41 inches Hg (1030.0 mb)
Winds: from the S (170 degrees) at 2 MPH (2 knots; 1.0 m/s)
Visibility: 6 or more miles (10+ km)
Ceiling: ceiling and visibility are OK
Clouds: unknown
Weather: no significant weather observed at this time

METAR text: EKSP 201750Z 11004KT CAVOK 14/02 Q1030 RMK FEW200
Conditions at: EKSP (SKRYDSTRUP(DAN-A, DK) observed 1750 UTC 20 April 2019
Temperature: 14.0°C (57°F)
Dewpoint: 2.0°C (36°F) [RH = 44%]
Pressure (altimeter): 30.41 inches Hg (1030.0 mb)
Winds: from the ESE (110 degrees) at 5 MPH (4 knots; 2.1 m/s)
Visibility: 6 or more miles (10+ km)
Ceiling: ceiling and visibility are OK
Clouds: unknown
Weather: no significant weather observed at this time

METAR text: EKSP 201720Z 13005KT CAVOK 15/03 Q1031 RMK FEW200
Conditions at: EKSP (SKRYDSTRUP(DAN-A, DK) observed 1720 UTC 20 April 2019
Temperature: 15.0°C (59°F)
Dewpoint: 3.0°C (37°F) [RH = 44%]
Pressure (altimeter): 30.44 inches Hg (1031.0 mb)
Winds: from the SE (130 degrees) at 6 MPH (5 knots; 2.6 m/s)
Visibility: 6 or more miles (10+ km)
Ceiling: ceiling and visibility are OK
Clouds: unknown
Weather: no significant weather observed at this time

METAR text: EKSP 201650Z 14004KT CAVOK 17/01 Q1031 RMK FEW200
Conditions at: EKSP (SKRYDSTRUP(DAN-A, DK) observed 1650 UTC 20 April 2019
Temperature: 17.0°C (63°F)
Dewpoint: 1.0°C (34°F) [RH = 34%]
Pressure (altimeter): 30.44 inches Hg (1031.0 mb)
Winds: from the SE (140 degrees) at 5 MPH (4 knots; 2.1 m/s)
Visibility: 6 or more miles (10+ km)
Ceiling: ceiling and visibility are OK
Clouds: unknown
Weather: no significant weather observed at this time

METAR text: EKSP 201620Z 11005KT 080V140 CAVOK 17/01 Q1031 RMK FEW200
Conditions at: EKSP (SKRYDSTRUP(DAN-A, DK) observed 1620 UTC 20 April 2019
Temperature: 17.0°C (63°F)
Dewpoint: 1.0°C (34°F) [RH = 34%]
Pressure (altimeter): 30.44 inches Hg (1031.0 mb)
Winds: from the ESE (110 degrees) at 6 MPH (5 knots; 2.6 m/s)
Visibility: 6 or more miles (10+ km)
Ceiling: ceiling and visibility are OK
Clouds: unknown
Weather: no significant weather observed at this time

METAR text: EKSP 201550Z 14005KT CAVOK 17/M00 Q1031 RMK FEW200
Conditions at: EKSP (SKRYDSTRUP(DAN-A, DK) observed 1550 UTC 20 April 2019
Temperature: 17.0°C (63°F)
Dewpoint: 0.0°C (32°F) [RH = 32%]
Pressure (altimeter): 30.44 inches Hg (1031.0 mb)
Winds: from the SE (140 degrees) at 6 MPH (5 knots; 2.6 m/s)
Visibility: 6 or more miles (10+ km)
Ceiling: ceiling and visibility are OK
Clouds: unknown
Weather: no significant weather observed at this time

METAR text: EKSP 201520Z 11003KT CAVOK 18/M00 Q1032 RMK FEW200
Conditions at: EKSP (SKRYDSTRUP(DAN-A, DK) observed 1520 UTC 20 April 2019
Temperature: 18.0°C (64°F)
Dewpoint: 0.0°C (32°F) [RH = 30%]
Pressure (altimeter): 30.47 inches Hg (1032.0 mb)
Winds: from the ESE (110 degrees) at 3 MPH (3 knots; 1.5 m/s)
Visibility: 6 or more miles (10+ km)
Ceiling: ceiling and visibility are OK
Clouds: unknown
Weather: no significant weather observed at this time

METAR text: EKSP 201450Z 12003KT CAVOK 18/M05 Q1032 RMK FEW200
Conditions at: EKSP (SKRYDSTRUP(DAN-A, DK) observed 1450 UTC 20 April 2019
Temperature: 18.0°C (64°F)
Dewpoint: -5.0°C (23°F) [RH = 20%]
Pressure (altimeter): 30.47 inches Hg (1032.0 mb)
Winds: from the ESE (120 degrees) at 3 MPH (3 knots; 1.5 m/s)
Visibility: 6 or more miles (10+ km)
Ceiling: ceiling and visibility are OK
Clouds: unknown
Weather: no significant weather observed at this time

Forecast for: EKSP (SKRYDSTRUP(DAN-A, DK)
Text: TAF EKSP 212321Z 2200/2224 11006KT 9999 FEW200
Forecast period: 0000 to 0500 UTC 22 April 2019
Forecast type: FROM: standard forecast or significant change
Winds: from the ESE (110 degrees) at 7 MPH (6 knots; 3.1 m/s)
Visibility: 6 or more miles 10+ km)
Ceiling: at least 12,000 feet AGL
Clouds: few clouds at 20000 feet AGL
Weather: no significant weather forecast for this period
Text: BECMG 2205/2208 12012KT
Forecast period: 0500 UTC 22 April 2019 to 0000 UTC 23 April 2019
Forecast type: BECOMING: Conditions expected to become as follows by 0800 UTC 22 April 2019
Winds: from the ESE (120 degrees) at 14 MPH (12 knots; 6.2 m/s)
Visibility: 6 or more miles 10+ km)
Ceiling: at least 12,000 feet AGL
Clouds: few clouds at 20000 feet AGL
Weather: no significant weather forecast for this period
Text: TEMPO 2211/2219 11015G28KT
Forecast period: 1100 to 1900 UTC 22 April 2019
Forecast type: TEMPORARY: The following changes expected for less than half the time period
Winds: from the ESE (110 degrees) at 17 MPH (15 knots; 7.7 m/s)
gusting to 32 MPH (28 knots; 14.4 m/s)
Visibility: missing
Ceiling: unknown
Clouds: missing
Weather: no significant weather forecast for this period